createdAt,value
2023-08-22T00:00:35.195Z,4.40
2023-08-22T00:03:03.711Z,4.28
2023-08-22T00:05:33.738Z,4.05
2023-08-22T00:08:06.223Z,4.25
2023-08-22T00:13:04.015Z,4.03
2023-08-22T00:15:32.090Z,4.13
2023-08-22T00:18:00.212Z,4.75
2023-08-22T00:20:28.577Z,4.32
2023-08-22T00:22:56.560Z,4.88
2023-08-22T00:25:24.643Z,4.13
2023-08-22T00:27:52.646Z,4.93
2023-08-22T00:30:22.126Z,4.00
2023-08-22T00:32:50.219Z,4.63
2023-08-22T00:35:18.425Z,4.20
2023-08-22T00:37:46.467Z,4.18
2023-08-22T00:40:14.528Z,4.88
2023-08-22T00:42:42.596Z,4.32
2023-08-22T00:45:12.369Z,3.67
2023-08-22T00:47:42.116Z,4.60
2023-08-22T00:50:11.401Z,4.10
2023-08-22T00:52:39.839Z,4.70
2023-08-22T00:55:09.087Z,4.80
2023-08-22T00:57:38.224Z,4.00
2023-08-22T01:00:08.384Z,5.05
2023-08-22T01:02:36.665Z,5.20
2023-08-22T01:05:06.773Z,4.57
2023-08-22T01:07:38.038Z,4.72
2023-08-22T01:10:10.102Z,5.00
2023-08-22T01:12:41.934Z,5.40
2023-08-22T01:15:14.631Z,5.03
2023-08-22T01:17:43.605Z,4.85
2023-08-22T01:20:13.674Z,5.95
2023-08-22T01:22:43.414Z,5.75
2023-08-22T01:25:11.576Z,5.20
2023-08-22T01:27:45.526Z,5.53
2023-08-22T01:30:18.064Z,5.60
2023-08-22T01:32:50.186Z,5.40
2023-08-22T01:35:19.052Z,5.85
2023-08-22T01:37:48.946Z,6.65
2023-08-22T01:40:18.031Z,5.80
2023-08-22T01:42:46.068Z,6.20
2023-08-22T01:45:14.087Z,6.00
2023-08-22T01:47:42.533Z,6.72
2023-08-22T01:50:11.154Z,6.53
2023-08-22T01:52:39.258Z,5.68
2023-08-22T01:55:09.816Z,5.90
2023-08-22T01:57:38.106Z,5.40
2023-08-22T02:00:08.343Z,5.35
2023-08-22T02:02:40.436Z,5.05
2023-08-22T02:05:08.683Z,5.68
2023-08-22T02:07:37.452Z,5.47
2023-08-22T02:10:06.210Z,5.78
2023-08-22T02:12:35.589Z,4.93
2023-08-22T02:15:04.503Z,5.88
2023-08-22T02:17:32.609Z,5.35
2023-08-22T02:20:00.662Z,5.47
2023-08-22T02:22:28.659Z,5.60
2023-08-22T02:24:56.742Z,5.90
2023-08-22T02:27:24.701Z,6.18
2023-08-22T02:29:54.566Z,6.00
2023-08-22T02:32:22.501Z,6.30
2023-08-22T02:34:50.537Z,6.30
2023-08-22T02:37:18.542Z,6.85
2023-08-22T02:39:46.569Z,6.72
2023-08-22T02:42:14.578Z,7.20
2023-08-22T02:44:42.698Z,7.05
2023-08-22T02:47:12.280Z,7.43
2023-08-22T02:49:40.360Z,7.40
2023-08-22T02:52:09.960Z,7.90
2023-08-22T02:54:37.954Z,8.25
2023-08-22T02:57:07.028Z,8.85
2023-08-22T02:59:34.968Z,7.55
2023-08-22T03:02:04.423Z,7.50
2023-08-22T03:04:34.652Z,8.40
2023-08-22T03:07:03.326Z,8.98
2023-08-22T03:09:36.612Z,8.65
2023-08-22T03:12:06.455Z,7.95
2023-08-22T03:14:34.425Z,7.88
2023-08-22T03:17:02.523Z,8.60
2023-08-22T03:19:30.853Z,8.88
2023-08-22T03:22:04.966Z,8.88
2023-08-22T03:24:33.525Z,8.27
2023-08-22T03:27:01.667Z,8.75
2023-08-22T03:29:30.020Z,8.52
2023-08-22T03:32:00.010Z,8.85
2023-08-22T03:34:28.169Z,9.05
2023-08-22T03:36:56.579Z,8.45
2023-08-22T03:39:26.129Z,8.82
2023-08-22T03:41:54.284Z,9.07
2023-08-22T03:44:22.320Z,8.82
2023-08-22T03:46:50.382Z,9.60
2023-08-22T03:49:31.761Z,10.15
2023-08-22T03:52:02.447Z,9.63
2023-08-22T03:54:32.537Z,9.98
2023-08-22T03:57:00.655Z,10.45
2023-08-22T03:59:28.749Z,10.73
2023-08-22T04:01:56.824Z,9.75
2023-08-22T04:04:26.068Z,10.05
2023-08-22T04:06:54.135Z,10.07
2023-08-22T04:09:22.315Z,10.15
2023-08-22T04:11:51.685Z,10.48
2023-08-22T04:14:19.696Z,10.05
2023-08-22T04:16:47.799Z,10.93
2023-08-22T04:19:15.848Z,10.63
2023-08-22T04:21:44.220Z,10.73
2023-08-22T04:24:12.712Z,10.77
2023-08-22T04:26:41.387Z,11.02
2023-08-22T04:29:11.062Z,10.65
2023-08-22T04:31:39.100Z,10.57
2023-08-22T04:34:08.210Z,10.80
2023-08-22T04:36:41.960Z,10.75
2023-08-22T04:39:11.194Z,9.80
2023-08-22T04:41:39.822Z,11.70
2023-08-22T04:44:21.070Z,10.50
2023-08-22T04:46:49.261Z,11.00
2023-08-22T04:49:17.271Z,10.90
2023-08-22T04:51:45.617Z,10.68
2023-08-22T04:54:13.707Z,11.48
2023-08-22T04:56:41.633Z,10.88
2023-08-22T04:59:09.645Z,10.88
2023-08-22T05:01:39.094Z,11.60
2023-08-22T05:04:07.217Z,11.52
2023-08-22T05:06:35.200Z,11.57
2023-08-22T05:09:08.173Z,11.18
2023-08-22T05:11:36.901Z,11.57
2023-08-22T05:14:05.768Z,10.60
2023-08-22T05:16:34.029Z,11.50
2023-08-22T05:19:05.738Z,11.30
2023-08-22T05:21:33.829Z,11.73
2023-08-22T05:24:02.575Z,11.80
2023-08-22T05:29:30.174Z,11.82
2023-08-22T05:31:58.455Z,12.82
2023-08-22T05:34:32.789Z,12.45
2023-08-22T05:37:01.881Z,13.02
2023-08-22T05:39:29.838Z,13.10
2023-08-22T05:41:57.876Z,11.93
2023-08-22T05:44:26.033Z,12.90
2023-08-22T05:46:54.809Z,13.25
2023-08-22T05:49:25.682Z,13.75
2023-08-22T05:52:01.913Z,14.15
2023-08-22T05:54:29.972Z,14.10
2023-08-22T05:56:58.567Z,13.70
2023-08-22T05:59:26.669Z,12.77
2023-08-22T06:01:57.758Z,14.18
2023-08-22T06:04:27.429Z,13.63
2023-08-22T06:06:56.850Z,12.20
2023-08-22T06:09:24.963Z,12.63
2023-08-22T06:11:53.365Z,12.30
2023-08-22T06:14:21.593Z,11.30
2023-08-22T06:16:49.604Z,12.27
2023-08-22T06:19:17.748Z,11.13
2023-08-22T06:21:46.752Z,10.73
2023-08-22T06:24:16.195Z,10.63
2023-08-22T06:26:44.451Z,11.57
2023-08-22T06:29:12.846Z,10.73
2023-08-22T06:31:41.716Z,11.93
2023-08-22T06:34:11.718Z,10.80
2023-08-22T06:36:39.899Z,11.25
2023-08-22T06:39:07.928Z,10.32
2023-08-22T06:41:39.001Z,10.38
2023-08-22T06:44:12.331Z,9.95
2023-08-22T06:46:40.637Z,9.90
2023-08-22T06:49:08.587Z,9.55
2023-08-22T06:51:36.714Z,10.15
2023-08-22T06:54:04.855Z,10.57
2023-08-22T06:56:32.925Z,10.07
2023-08-22T06:59:02.550Z,9.98
2023-08-22T07:01:30.509Z,9.13
2023-08-22T07:04:10.430Z,10.27
2023-08-22T07:06:43.711Z,10.30
2023-08-22T07:09:11.710Z,10.52
2023-08-22T07:11:39.743Z,10.00
2023-08-22T07:14:09.107Z,9.75
2023-08-22T07:16:37.138Z,9.65
2023-08-22T07:19:05.198Z,9.45
2023-08-22T07:21:33.256Z,10.20
2023-08-22T07:24:01.258Z,9.45
2023-08-22T07:26:29.253Z,9.43
2023-08-22T07:28:57.277Z,10.93
2023-08-22T07:31:27.036Z,6.93
2023-08-22T07:33:55.989Z,7.68
2023-08-22T07:36:24.149Z,6.05
2023-08-22T07:38:52.223Z,5.13
2023-08-22T07:41:20.239Z,4.72
2023-08-22T07:43:50.202Z,5.07
2023-08-22T07:46:20.702Z,4.43
2023-08-22T07:48:50.112Z,3.20
2023-08-22T07:51:18.221Z,3.40
2023-08-22T07:53:46.184Z,3.50
2023-08-22T07:56:14.124Z,2.20
2023-08-22T07:58:42.138Z,1.80
2023-08-22T08:01:12.850Z,2.00
2023-08-22T08:03:41.349Z,2.03
2023-08-22T08:06:11.112Z,1.75
2023-08-22T08:08:39.229Z,2.05
2023-08-22T08:11:07.193Z,2.20
2023-08-22T08:13:36.680Z,1.92
2023-08-22T08:16:07.630Z,2.00
2023-08-22T08:18:36.102Z,2.00
2023-08-22T08:21:04.671Z,2.10
2023-08-22T08:23:33.990Z,2.00
2023-08-22T08:26:04.577Z,2.65
2023-08-22T08:28:34.140Z,2.85
2023-08-22T08:31:02.245Z,3.40
2023-08-22T08:33:30.409Z,2.60
2023-08-22T08:35:58.399Z,3.13
2023-08-22T08:38:26.562Z,2.80
2023-08-22T08:40:56.362Z,2.95
2023-08-22T08:43:24.394Z,2.97
2023-08-22T08:45:53.350Z,3.15
2023-08-22T08:48:22.582Z,2.75
2023-08-22T08:50:51.744Z,2.97
2023-08-22T08:53:20.097Z,3.08
2023-08-22T08:55:48.473Z,2.80
2023-08-22T08:58:17.954Z,2.67
2023-08-22T09:00:46.859Z,3.10
2023-08-22T09:03:14.948Z,3.03
2023-08-22T09:05:42.983Z,3.13
2023-08-22T09:08:18.047Z,2.90
2023-08-22T09:10:50.071Z,3.10
2023-08-22T09:13:25.459Z,3.40
2023-08-22T09:15:53.533Z,2.92
2023-08-22T09:18:21.797Z,3.40
2023-08-22T09:20:50.885Z,3.63
2023-08-22T09:23:28.317Z,3.85
2023-08-22T09:25:56.341Z,3.63
2023-08-22T09:28:25.650Z,3.80
2023-08-22T09:30:59.568Z,3.72
2023-08-22T09:33:27.570Z,3.78
2023-08-22T09:35:58.955Z,3.33
2023-08-22T09:38:27.023Z,2.70
2023-08-22T09:40:56.465Z,2.40
2023-08-22T09:43:25.886Z,2.63
2023-08-22T09:45:54.189Z,2.70
2023-08-22T09:48:25.098Z,2.42
2023-08-22T09:50:57.016Z,2.63
2023-08-22T09:53:26.019Z,2.22
2023-08-22T09:55:55.281Z,2.22
2023-08-22T09:58:23.730Z,3.60
2023-08-22T10:00:53.645Z,2.85
2023-08-22T10:03:22.632Z,3.05
2023-08-22T10:05:52.249Z,2.78
2023-08-22T10:08:20.326Z,2.70
2023-08-22T10:10:49.186Z,3.03
2023-08-22T10:13:18.151Z,2.85
2023-08-22T10:15:48.671Z,2.75
2023-08-22T10:20:46.029Z,2.90
2023-08-22T10:23:14.177Z,3.05
2023-08-22T10:25:47.201Z,3.80
2023-08-22T10:28:15.341Z,4.03
2023-08-22T10:31:01.838Z,4.60
2023-08-22T10:33:35.338Z,4.60
2023-08-22T10:36:08.374Z,5.22
2023-08-22T10:38:57.152Z,4.50
2023-08-22T10:41:25.577Z,3.88
2023-08-22T10:43:56.405Z,4.13
2023-08-22T10:46:39.351Z,4.20
2023-08-22T10:49:07.841Z,4.80
2023-08-22T10:51:45.222Z,3.83
2023-08-22T10:54:18.167Z,4.50
2023-08-22T10:56:46.145Z,4.40
2023-08-22T10:59:14.228Z,4.78
2023-08-22T11:01:42.580Z,3.40
2023-08-22T11:04:14.199Z,3.67
2023-08-22T11:06:42.176Z,4.18
2023-08-22T11:09:13.540Z,3.35
2023-08-22T11:11:41.572Z,3.42
2023-08-22T11:14:09.639Z,3.55
2023-08-22T11:16:37.765Z,3.47
2023-08-22T11:19:07.028Z,3.85
2023-08-22T11:21:35.117Z,3.55
2023-08-22T11:24:03.850Z,3.38
2023-08-22T11:26:33.273Z,3.40
2023-08-22T11:29:05.916Z,3.90
2023-08-22T11:31:39.646Z,3.20
2023-08-22T11:34:08.964Z,2.53
2023-08-22T11:36:36.999Z,2.53
2023-08-22T11:39:06.091Z,2.58
2023-08-22T11:41:35.648Z,2.03
2023-08-22T11:44:03.692Z,1.67
2023-08-22T11:46:34.812Z,1.40
2023-08-22T11:49:21.753Z,1.45
2023-08-22T11:51:54.208Z,1.27
2023-08-22T11:54:25.973Z,1.75
2023-08-22T11:57:00.352Z,1.20
2023-08-22T11:59:28.382Z,1.33
2023-08-22T12:01:56.904Z,1.10
2023-08-22T12:04:25.147Z,1.45
2023-08-22T12:07:00.326Z,1.73
2023-08-22T12:09:28.318Z,1.50
2023-08-22T12:12:08.825Z,1.25
2023-08-22T12:14:36.830Z,1.40
2023-08-22T12:17:04.854Z,1.70
2023-08-22T12:19:32.884Z,1.60
2023-08-22T12:22:01.159Z,1.30
2023-08-22T12:24:29.126Z,1.27
2023-08-22T12:26:58.377Z,0.90
2023-08-22T12:29:26.557Z,1.50
2023-08-22T12:31:54.684Z,1.40
2023-08-22T12:34:23.294Z,1.40
2023-08-22T12:36:52.229Z,1.58
2023-08-22T12:39:20.191Z,1.30
2023-08-22T12:41:48.231Z,1.38
2023-08-22T12:44:17.635Z,1.23
2023-08-22T12:46:45.616Z,1.00
2023-08-22T12:49:13.595Z,1.17
2023-08-22T12:51:41.625Z,0.90
2023-08-22T12:54:09.542Z,1.00
2023-08-22T12:56:37.814Z,1.02
2023-08-22T12:59:05.866Z,0.70
2023-08-22T13:01:36.202Z,0.73
2023-08-22T13:04:11.951Z,0.82
2023-08-22T13:06:40.204Z,0.60
2023-08-22T13:09:11.475Z,0.90
2023-08-22T13:11:43.027Z,0.90
2023-08-22T13:14:12.296Z,0.63
2023-08-22T13:16:41.711Z,0.80
2023-08-22T13:19:10.194Z,0.80
2023-08-22T13:21:38.286Z,0.63
2023-08-22T13:24:06.680Z,0.95
2023-08-22T13:26:34.693Z,0.90
2023-08-22T13:29:02.850Z,0.73
2023-08-22T13:31:30.910Z,0.80
2023-08-22T13:34:02.390Z,0.85
2023-08-22T13:36:30.585Z,0.90
2023-08-22T13:38:59.433Z,0.85
2023-08-22T13:41:27.610Z,0.90
2023-08-22T13:43:55.601Z,0.80
2023-08-22T13:46:23.719Z,0.70
2023-08-22T13:48:51.695Z,0.90
2023-08-22T13:51:21.026Z,1.17
2023-08-22T13:53:49.091Z,0.80
2023-08-22T13:56:17.502Z,1.02
2023-08-22T13:58:45.479Z,1.00
2023-08-22T14:01:13.483Z,1.20
2023-08-22T14:03:41.915Z,1.30
2023-08-22T14:06:09.975Z,1.45
2023-08-22T14:08:39.312Z,1.98
2023-08-22T14:11:07.295Z,1.80
2023-08-22T14:13:35.707Z,1.83
2023-08-22T14:16:03.747Z,1.80
2023-08-22T14:18:31.858Z,2.10
2023-08-22T14:20:59.834Z,1.83
2023-08-22T14:23:27.846Z,2.17
2023-08-22T14:25:57.390Z,1.55
2023-08-22T14:28:25.391Z,1.45
2023-08-22T14:30:59.784Z,1.40
2023-08-22T14:33:27.902Z,1.20
2023-08-22T14:35:55.965Z,1.20
2023-08-22T14:38:24.226Z,1.02
2023-08-22T14:40:57.525Z,1.13
2023-08-22T14:43:27.772Z,0.88
2023-08-22T14:45:56.222Z,0.98
2023-08-22T14:48:24.432Z,0.98
2023-08-22T14:50:56.010Z,0.70
2023-08-22T14:53:24.417Z,0.90
2023-08-22T14:56:00.708Z,0.88
2023-08-22T14:58:31.649Z,1.05
2023-08-22T15:00:59.870Z,0.90
2023-08-22T15:03:27.927Z,1.00
2023-08-22T15:05:55.985Z,1.17
2023-08-22T15:08:24.004Z,1.17
2023-08-22T15:10:52.188Z,0.98
2023-08-22T15:13:21.664Z,0.90
2023-08-22T15:15:50.093Z,0.90
2023-08-22T15:18:18.154Z,0.90
2023-08-22T15:20:46.151Z,0.85
2023-08-22T15:23:14.264Z,1.10
2023-08-22T15:25:42.306Z,1.10
2023-08-22T15:28:10.423Z,0.80
2023-08-22T15:30:40.012Z,1.15
2023-08-22T15:33:08.192Z,0.80
2023-08-22T15:35:36.372Z,0.88
2023-08-22T15:38:04.499Z,0.80
2023-08-22T15:40:32.429Z,1.10
2023-08-22T15:43:00.382Z,0.82
2023-08-22T15:45:28.679Z,0.90
2023-08-22T15:47:58.054Z,0.70
2023-08-22T15:50:25.964Z,0.75
2023-08-22T15:52:53.973Z,1.00
2023-08-22T15:55:21.897Z,0.73
2023-08-22T15:57:49.893Z,0.90
2023-08-22T16:00:18.225Z,0.82
2023-08-22T16:02:46.625Z,0.68
2023-08-22T16:05:16.462Z,0.80
2023-08-22T16:07:44.811Z,1.02
2023-08-22T16:10:13.124Z,0.50
2023-08-22T16:12:41.070Z,0.65
2023-08-22T16:15:09.792Z,0.63
2023-08-22T16:17:37.834Z,0.70
2023-08-22T16:20:06.352Z,0.75
2023-08-22T16:22:35.824Z,0.88
2023-08-22T16:25:03.823Z,0.50
2023-08-22T16:27:36.920Z,0.60
2023-08-22T16:30:06.293Z,0.65
2023-08-22T16:32:34.333Z,1.50
2023-08-22T16:35:02.357Z,0.65
2023-08-22T16:37:30.270Z,1.10
2023-08-22T16:40:00.108Z,0.93
2023-08-22T16:42:28.119Z,0.70
2023-08-22T16:44:56.155Z,0.60
2023-08-22T16:47:24.170Z,0.70
2023-08-22T16:49:52.297Z,0.77
2023-08-22T16:52:20.472Z,0.80
2023-08-22T16:54:48.588Z,0.80
2023-08-22T16:57:17.945Z,0.77
2023-08-22T16:59:46.009Z,0.63
2023-08-22T17:02:14.021Z,0.75
2023-08-22T17:04:42.034Z,0.85
2023-08-22T17:07:10.635Z,0.63
2023-08-22T17:09:38.618Z,0.60
2023-08-22T17:12:06.760Z,0.98
2023-08-22T17:14:36.145Z,0.68
2023-08-22T17:17:05.173Z,0.80
2023-08-22T17:19:33.341Z,0.90
2023-08-22T17:22:01.338Z,0.80
2023-08-22T17:24:29.311Z,1.00
2023-08-22T17:26:57.360Z,0.70
2023-08-22T17:29:25.376Z,1.13
2023-08-22T17:31:54.685Z,0.98
2023-08-22T17:34:23.374Z,0.80
2023-08-22T17:36:51.419Z,0.80
2023-08-22T17:39:20.188Z,1.27
2023-08-22T17:41:48.233Z,1.00
2023-08-22T17:44:17.341Z,1.10
2023-08-22T17:46:45.468Z,0.98
2023-08-22T17:49:14.744Z,1.58
2023-08-22T17:51:42.751Z,0.90
2023-08-22T17:54:12.802Z,0.90
2023-08-22T17:56:42.501Z,1.23
2023-08-22T17:59:10.455Z,0.80
2023-08-22T18:01:38.598Z,1.10
2023-08-22T18:04:07.776Z,0.90
2023-08-22T18:06:37.169Z,1.30
2023-08-22T18:09:05.642Z,0.80
2023-08-22T18:11:33.788Z,1.10
2023-08-22T18:14:01.843Z,0.80
2023-08-22T18:16:30.873Z,1.30
2023-08-22T18:18:58.924Z,1.20
2023-08-22T18:21:26.933Z,0.90
2023-08-22T18:23:56.509Z,1.00
2023-08-22T18:26:24.564Z,1.25
2023-08-22T18:28:52.661Z,1.05
2023-08-22T18:31:25.014Z,1.48
2023-08-22T18:33:55.443Z,0.80
2023-08-22T18:38:52.341Z,1.00
2023-08-22T18:41:21.812Z,0.90
2023-08-22T18:43:50.525Z,0.93
2023-08-22T18:46:18.747Z,1.10
2023-08-22T18:48:47.084Z,1.25
2023-08-22T18:51:15.300Z,1.10
2023-08-22T18:53:43.284Z,0.90
2023-08-22T18:56:11.332Z,1.15
2023-08-22T18:58:41.363Z,1.17
2023-08-22T19:01:09.720Z,1.10
2023-08-22T19:03:37.915Z,1.50
2023-08-22T19:06:05.954Z,1.00
2023-08-22T19:08:33.990Z,1.00
2023-08-22T19:11:03.495Z,1.52
2023-08-22T19:13:31.574Z,2.42
2023-08-22T19:16:01.069Z,1.20
2023-08-22T19:18:29.197Z,1.48
2023-08-22T19:20:57.198Z,1.27
2023-08-22T19:23:25.169Z,1.52
2023-08-22T19:25:53.358Z,1.58
2023-08-22T19:28:21.446Z,1.70
2023-08-22T19:30:55.167Z,1.40
2023-08-22T19:33:25.681Z,1.73
2023-08-22T19:35:53.998Z,1.77
2023-08-22T19:38:22.140Z,2.08
2023-08-22T19:40:50.780Z,1.83
2023-08-22T19:43:18.818Z,1.38
2023-08-22T19:45:47.283Z,1.60
2023-08-22T19:48:15.530Z,1.20
2023-08-22T19:50:45.930Z,1.65
2023-08-22T19:53:13.946Z,2.00
2023-08-22T19:55:42.080Z,1.40
2023-08-22T19:58:10.014Z,1.60
2023-08-22T20:00:39.145Z,1.40
2023-08-22T20:03:07.239Z,1.80
2023-08-22T20:05:35.383Z,1.83
2023-08-22T20:08:04.874Z,1.50
2023-08-22T20:10:34.017Z,1.80
2023-08-22T20:13:03.178Z,1.88
2023-08-22T20:15:31.317Z,2.00
2023-08-22T20:17:59.426Z,2.13
2023-08-22T20:20:29.500Z,2.50
2023-08-22T20:22:57.521Z,1.87
2023-08-22T20:25:26.871Z,2.33
2023-08-22T20:27:56.843Z,2.15
2023-08-22T20:30:24.796Z,2.20
2023-08-22T20:32:52.800Z,1.95
2023-08-22T20:35:21.481Z,2.00
2023-08-22T20:37:49.577Z,1.90
2023-08-22T20:40:17.729Z,2.30
2023-08-22T20:42:48.276Z,2.00
2023-08-22T20:45:16.254Z,2.20
2023-08-22T20:47:44.519Z,2.25
2023-08-22T20:50:12.817Z,2.47
2023-08-22T20:52:40.788Z,2.17
2023-08-22T20:55:09.347Z,2.47
2023-08-22T20:57:37.336Z,2.40
2023-08-22T21:00:10.085Z,2.13
2023-08-22T21:02:39.227Z,2.45
2023-08-22T21:05:07.713Z,2.85
2023-08-22T21:07:35.696Z,2.63
2023-08-22T21:10:04.180Z,2.80
2023-08-22T21:12:35.787Z,3.05
2023-08-22T21:15:04.515Z,2.92
2023-08-22T21:17:33.917Z,3.20
2023-08-22T21:20:01.956Z,2.88
2023-08-22T21:22:30.045Z,2.88
2023-08-22T21:24:58.131Z,2.95
2023-08-22T21:27:26.073Z,3.15
2023-08-22T21:29:54.030Z,3.40
2023-08-22T21:32:22.043Z,3.60
2023-08-22T21:34:51.553Z,3.40
2023-08-22T21:37:22.452Z,3.58
2023-08-22T21:39:50.562Z,3.95
2023-08-22T21:42:18.596Z,3.80
2023-08-22T21:44:46.596Z,3.45
2023-08-22T21:47:14.534Z,3.50
2023-08-22T21:49:42.571Z,3.03
2023-08-22T21:52:12.842Z,3.40
2023-08-22T21:54:40.929Z,3.63
2023-08-22T21:57:09.346Z,3.72
2023-08-22T21:59:37.317Z,3.35
2023-08-22T22:02:05.394Z,4.20
2023-08-22T22:04:33.354Z,3.42
2023-08-22T22:07:01.381Z,4.47
2023-08-22T22:09:33.221Z,4.30
2023-08-22T22:12:01.269Z,3.95
2023-08-22T22:14:29.675Z,3.38
2023-08-22T22:16:57.700Z,3.75
2023-08-22T22:19:25.766Z,3.58
2023-08-22T22:21:53.806Z,3.88
2023-08-22T22:24:21.842Z,3.67
2023-08-22T22:26:51.288Z,3.33
2023-08-22T22:29:19.411Z,4.07
2023-08-22T22:31:47.367Z,3.42
2023-08-22T22:34:15.493Z,3.60
2023-08-22T22:36:43.687Z,4.47
2023-08-22T22:39:11.712Z,4.40
2023-08-22T22:41:39.737Z,4.10
2023-08-22T22:44:09.765Z,3.42
2023-08-22T22:46:37.819Z,3.00
2023-08-22T22:49:05.844Z,3.10
2023-08-22T22:51:33.813Z,3.45
2023-08-22T22:54:01.823Z,3.25
2023-08-22T22:56:29.862Z,3.58
2023-08-22T22:58:57.926Z,4.00
2023-08-22T23:01:27.325Z,3.97
2023-08-22T23:03:55.830Z,4.72
2023-08-22T23:06:23.804Z,4.63
2023-08-22T23:08:51.796Z,4.38
2023-08-22T23:11:31.151Z,4.53
2023-08-22T23:14:07.646Z,4.82
2023-08-22T23:16:37.094Z,4.13
2023-08-22T23:19:05.148Z,5.25
2023-08-22T23:21:33.077Z,4.53
2023-08-22T23:24:01.135Z,5.63
2023-08-22T23:26:29.198Z,5.43
2023-08-22T23:28:57.180Z,5.47
2023-08-22T23:31:25.277Z,5.20
2023-08-22T23:33:57.255Z,5.13
2023-08-22T23:36:25.496Z,4.20
2023-08-22T23:38:53.436Z,3.85
2023-08-22T23:41:21.372Z,4.30
2023-08-22T23:43:49.455Z,4.50
2023-08-22T23:46:17.874Z,4.43
2023-08-22T23:48:45.989Z,4.57
2023-08-22T23:51:17.282Z,4.65
2023-08-22T23:53:45.875Z,3.83
2023-08-22T23:56:13.994Z,4.00
2023-08-22T23:58:41.931Z,3.97
